Time;durP1;ratioP1;P1;durP2;ratioP2;P2;SDS_P1;SDS_P2;PMS_P1;PMS_P2;Temp;Humidity;BMP_temperature;BMP_pressure;BME280_temperature;BME280_humidity;BME280_pressure;Samples;Min_cycle;Max_cycle;Signal;HPM_P1;HPM_P2
2023/07/25 00:00:23;;;;;;;15.48;4.53;;;23.90;89.20;;;;;;5047244;28;20036;-54
2023/07/25 00:02:49;;;;;;;13.82;5.15;;;23.80;89.20;;;;;;5046114;28;20506;-54
2023/07/25 00:05:14;;;;;;;11.20;4.85;;;23.80;89.10;;;;;;5046436;28;20448;-55
2023/07/25 00:07:40;;;;;;;16.05;4.75;;;23.80;89.00;;;;;;5046550;28;20037;-55
2023/07/25 00:10:06;;;;;;;12.43;4.55;;;23.80;88.90;;;;;;5047258;28;20053;-55
2023/07/25 00:12:32;;;;;;;13.38;4.65;;;23.80;88.80;;;;;;5047367;28;20033;-55
2023/07/25 00:14:57;;;;;;;11.27;4.57;;;23.80;88.80;;;;;;5045823;28;20065;-55
2023/07/25 00:17:23;;;;;;;9.27;4.38;;;23.80;88.80;;;;;;5041546;28;20025;-56
2023/07/25 00:19:48;;;;;;;12.18;4.55;;;23.70;88.70;;;;;;5044439;28;20147;-55
2023/07/25 00:22:14;;;;;;;12.27;4.53;;;23.70;88.70;;;;;;5030586;28;20051;-55
2023/07/25 00:24:39;;;;;;;11.73;4.50;;;23.70;88.70;;;;;;5027873;28;20029;-54
2023/07/25 00:27:05;;;;;;;7.85;3.65;;;23.70;88.60;;;;;;5045923;28;20033;-55
2023/07/25 00:29:30;;;;;;;13.75;4.45;;;23.70;88.60;;;;;;5045644;28;20034;-55
2023/07/25 00:31:56;;;;;;;14.65;4.63;;;23.70;88.60;;;;;;5044967;28;20397;-55
2023/07/25 00:34:21;;;;;;;9.60;4.13;;;23.70;88.60;;;;;;5045439;28;20021;-55
2023/07/25 00:36:47;;;;;;;6.97;3.60;;;23.70;88.50;;;;;;5036807;28;20049;-55
2023/07/25 00:39:13;;;;;;;9.68;3.92;;;23.60;88.50;;;;;;5046529;28;20029;-55
2023/07/25 00:41:38;;;;;;;9.38;3.95;;;23.60;88.60;;;;;;5046658;28;20037;-55
2023/07/25 00:44:04;;;;;;;12.82;3.88;;;23.60;88.60;;;;;;5045096;28;20026;-57
2023/07/25 00:46:29;;;;;;;11.25;3.78;;;23.60;88.60;;;;;;5028545;28;20044;-57
2023/07/25 00:48:55;;;;;;;12.25;4.05;;;23.60;88.60;;;;;;5044673;28;20036;-57
2023/07/25 00:51:20;;;;;;;7.55;3.80;;;23.60;88.60;;;;;;5045430;28;20033;-57
2023/07/25 00:53:46;;;;;;;8.40;4.07;;;23.50;88.50;;;;;;5046423;28;20108;-57
2023/07/25 00:56:12;;;;;;;11.27;3.97;;;23.50;88.50;;;;;;5045320;28;20136;-57
2023/07/25 00:58:37;;;;;;;11.50;3.95;;;23.50;88.50;;;;;;5045305;28;20026;-57
2023/07/25 01:01:06;;;;;;;9.10;3.60;;;23.50;88.40;;;;;;5045147;28;20056;-57
2023/07/25 01:03:33;;;;;;;8.18;3.80;;;23.50;88.30;;;;;;5046422;28;20025;-57
2023/07/25 01:06:03;;;;;;;9.18;3.80;;;23.50;88.30;;;;;;5044874;28;20071;-57
2023/07/25 01:08:29;;;;;;;7.95;3.53;;;23.50;88.10;;;;;;5045208;28;20025;-58
2023/07/25 01:10:54;;;;;;;10.00;3.92;;;23.50;88.20;;;;;;5046322;28;20030;-57
2023/07/25 01:13:21;;;;;;;7.18;3.42;;;23.50;88.20;;;;;;5046243;28;20022;-57
2023/07/25 01:15:47;;;;;;;8.02;3.83;;;23.40;88.20;;;;;;5041415;28;20029;-57
2023/07/25 01:18:13;;;;;;;9.05;3.63;;;23.40;88.10;;;;;;5036561;28;20061;-58
2023/07/25 01:20:38;;;;;;;11.30;3.65;;;23.40;88.10;;;;;;5058643;28;20034;-58
2023/07/25 01:23:05;;;;;;;5.35;3.25;;;23.40;88.40;;;;;;5044826;28;20546;-58
2023/07/25 01:25:30;;;;;;;6.75;3.40;;;23.40;88.50;;;;;;5043948;28;20022;-58
2023/07/25 01:27:56;;;;;;;5.60;3.00;;;23.30;88.60;;;;;;5043550;28;20049;-58
2023/07/25 01:30:21;;;;;;;4.90;3.00;;;23.40;88.50;;;;;;5046140;28;20037;-57
2023/07/25 01:32:47;;;;;;;7.45;2.92;;;23.30;88.30;;;;;;5044947;28;20037;-55
2023/07/25 01:35:12;;;;;;;7.72;3.47;;;23.40;88.50;;;;;;5046039;28;20028;-55
2023/07/25 01:37:38;;;;;;;6.05;3.13;;;23.30;88.60;;;;;;5045825;28;20041;-55
2023/07/25 01:40:04;;;;;;;7.90;3.20;;;23.30;89.30;;;;;;5045999;28;20037;-55
2023/07/25 01:42:31;;;;;;;7.35;3.33;;;23.30;88.80;;;;;;5028222;28;20496;-55
2023/07/25 01:44:56;;;;;;;9.73;3.47;;;23.30;88.80;;;;;;5044996;28;20029;-55
2023/07/25 01:47:25;;;;;;;7.35;3.42;;;23.30;88.80;;;;;;5044685;28;20030;-57
2023/07/25 01:49:52;;;;;;;8.95;3.00;;;23.30;88.80;;;;;;5045682;28;20035;-57
2023/07/25 01:52:17;;;;;;;5.97;3.15;;;23.20;88.80;;;;;;5044299;28;20663;-58
2023/07/25 01:54:43;;;;;;;6.57;3.28;;;23.20;88.90;;;;;;5027677;28;20060;-58
2023/07/25 01:57:08;;;;;;;5.20;3.08;;;23.20;88.90;;;;;;5044614;28;20045;-57
2023/07/25 01:59:34;;;;;;;5.93;3.20;;;23.20;89.00;;;;;;5045764;28;20487;-57
2023/07/25 02:02:00;;;;;;;4.80;3.00;;;23.20;89.00;;;;;;5044745;28;20095;-57
2023/07/25 02:04:25;;;;;;;8.50;3.35;;;23.20;89.00;;;;;;5046296;28;20036;-57
2023/07/25 02:06:51;;;;;;;6.43;3.03;;;23.20;89.00;;;;;;5044383;28;20052;-58
2023/07/25 02:09:16;;;;;;;6.35;3.20;;;23.20;89.10;;;;;;5044470;28;20037;-58
2023/07/25 02:11:42;;;;;;;8.50;3.17;;;23.20;89.20;;;;;;5043857;28;20385;-58
2023/07/25 02:14:08;;;;;;;5.85;3.58;;;23.20;89.30;;;;;;5044307;28;20065;-58
2023/07/25 02:16:36;;;;;;;7.25;2.97;;;23.20;89.40;;;;;;5044035;28;20038;-57
2023/07/25 02:19:02;;;;;;;9.05;3.70;;;23.10;89.40;;;;;;5042535;28;20037;-58
2023/07/25 02:21:28;;;;;;;7.70;3.50;;;23.10;89.40;;;;;;5044445;28;20131;-57
2023/07/25 02:23:53;;;;;;;5.93;3.28;;;23.10;89.60;;;;;;5045306;28;20066;-57
2023/07/25 02:26:19;;;;;;;7.95;3.42;;;23.10;89.50;;;;;;5031407;28;20033;-58
2023/07/25 02:28:45;;;;;;;5.57;3.30;;;23.10;89.50;;;;;;5047637;28;20041;-57
2023/07/25 02:31:10;;;;;;;4.32;3.53;;;23.10;89.60;;;;;;5049179;28;20117;-57
2023/07/25 02:33:36;;;;;;;8.43;3.45;;;23.10;89.80;;;;;;5047996;28;20037;-58
2023/07/25 02:36:02;;;;;;;5.70;3.75;;;23.10;89.90;;;;;;5047643;28;20028;-57
2023/07/25 02:38:27;;;;;;;3.78;3.22;;;23.10;89.70;;;;;;5047677;28;20042;-57
2023/07/25 02:40:53;;;;;;;8.07;3.22;;;23.10;89.70;;;;;;5047539;28;20075;-57
2023/07/25 02:43:22;;;;;;;6.07;3.15;;;23.00;89.70;;;;;;5047512;28;20021;-57
2023/07/25 02:45:48;;;;;;;5.18;3.55;;;23.00;89.80;;;;;;5031243;28;20029;-57
2023/07/25 02:48:14;;;;;;;6.80;3.80;;;23.00;89.90;;;;;;5047560;28;20033;-57
2023/07/25 02:50:39;;;;;;;7.25;3.95;;;23.00;89.90;;;;;;5047462;28;20040;-57
2023/07/25 02:53:05;;;;;;;7.35;4.25;;;23.00;89.80;;;;;;5048951;28;20029;-58
2023/07/25 02:55:30;;;;;;;9.15;4.53;;;23.10;89.90;;;;;;5048716;28;20053;-57
2023/07/25 02:57:56;;;;;;;6.25;3.83;;;23.00;90.00;;;;;;5047297;28;20075;-57
2023/07/25 03:00:22;;;;;;;6.53;3.72;;;23.00;89.90;;;;;;5047375;28;20052;-57
2023/07/25 03:02:47;;;;;;;6.90;3.88;;;23.00;90.00;;;;;;5030752;28;20382;-57
2023/07/25 03:05:15;;;;;;;6.40;3.95;;;23.00;90.00;;;;;;5047023;28;20014;-57
2023/07/25 03:07:40;;;;;;;5.63;4.25;;;23.00;90.00;;;;;;5031352;28;20040;-58
2023/07/25 03:10:06;;;;;;;9.60;4.40;;;23.00;90.00;;;;;;5046751;28;20025;-58
2023/07/25 03:12:32;;;;;;;9.73;4.10;;;23.00;90.10;;;;;;5048048;28;20068;-58
2023/07/25 03:14:58;;;;;;;7.53;3.88;;;23.00;90.20;;;;;;5047232;28;20026;-57
2023/07/25 03:17:23;;;;;;;5.05;4.13;;;23.00;90.20;;;;;;5046402;28;20093;-57
2023/07/25 03:19:49;;;;;;;5.22;3.70;;;22.90;90.20;;;;;;5047138;28;20183;-57
2023/07/25 03:22:17;;;;;;;6.45;4.13;;;23.00;90.20;;;;;;5046910;28;20029;-57
2023/07/25 03:24:43;;;;;;;6.30;3.95;;;23.00;90.20;;;;;;5047145;28;20543;-58
2023/07/25 03:27:08;;;;;;;7.05;3.70;;;23.00;90.20;;;;;;5046784;28;20033;-57
2023/07/25 03:29:34;;;;;;;5.75;3.70;;;23.00;90.20;;;;;;5046734;28;20120;-57
2023/07/25 03:32:00;;;;;;;8.07;3.55;;;23.00;90.20;;;;;;5046774;28;20036;-58
2023/07/25 03:34:25;;;;;;;6.30;3.90;;;23.00;90.30;;;;;;5046758;28;20470;-57
2023/07/25 03:36:51;;;;;;;7.07;5.10;;;23.00;90.30;;;;;;5047114;28;20044;-57
2023/07/25 03:39:16;;;;;;;5.55;4.07;;;23.00;90.30;;;;;;5046694;28;20089;-57
2023/07/25 03:41:42;;;;;;;6.05;4.38;;;22.90;90.20;;;;;;5047910;28;20045;-57
2023/07/25 03:44:08;;;;;;;7.72;4.72;;;23.00;90.20;;;;;;5047939;28;20049;-58
2023/07/25 03:46:33;;;;;;;8.43;4.32;;;23.00;90.20;;;;;;5046502;28;20051;-58
2023/07/25 03:48:59;;;;;;;8.23;4.50;;;23.00;90.20;;;;;;5048132;28;20029;-57
2023/07/25 03:51:24;;;;;;;10.27;5.32;;;22.90;90.30;;;;;;5047548;28;20125;-57
2023/07/25 03:53:50;;;;;;;7.40;4.20;;;22.90;90.20;;;;;;5046962;28;20068;-57
2023/07/25 03:56:15;;;;;;;5.75;4.55;;;23.00;90.10;;;;;;5046667;28;20021;-56
2023/07/25 03:58:41;;;;;;;8.15;4.65;;;22.90;90.10;;;;;;5029951;28;20041;-56
2023/07/25 04:01:06;;;;;;;10.38;4.68;;;22.90;90.00;;;;;;5046497;28;20033;-57
2023/07/25 04:03:32;;;;;;;6.63;4.38;;;22.90;90.10;;;;;;5047896;28;20052;-58
2023/07/25 04:05:57;;;;;;;8.75;4.05;;;22.90;90.10;;;;;;5047287;28;20032;-57
2023/07/25 04:08:23;;;;;;;8.13;3.97;;;22.90;90.10;;;;;;5029462;28;20048;-57
2023/07/25 04:10:48;;;;;;;6.38;4.22;;;22.90;90.10;;;;;;5045998;28;20022;-57
2023/07/25 04:13:14;;;;;;;6.95;4.28;;;22.90;90.10;;;;;;5047384;28;20089;-58
2023/07/25 04:15:40;;;;;;;6.35;4.30;;;22.90;90.10;;;;;;5045824;28;20026;-57
2023/07/25 04:18:05;;;;;;;6.68;4.30;;;22.90;90.10;;;;;;5043290;28;20536;-57
2023/07/25 04:20:31;;;;;;;5.78;4.30;;;22.90;90.10;;;;;;5044338;28;20025;-57
2023/07/25 04:22:56;;;;;;;6.90;4.55;;;22.90;90.10;;;;;;5045704;28;20081;-57
2023/07/25 04:25:23;;;;;;;7.80;4.53;;;22.80;90.00;;;;;;5046177;28;20029;-57
2023/07/25 04:27:48;;;;;;;12.73;5.25;;;22.80;90.10;;;;;;5028418;28;20084;-58
2023/07/25 04:30:14;;;;;;;57.78;9.20;;;22.80;90.00;;;;;;5038165;28;20049;-57
2023/07/25 04:32:39;;;;;;;34.95;7.65;;;22.80;90.00;;;;;;5046948;28;20159;-57
2023/07/25 04:35:05;;;;;;;19.25;6.03;;;22.80;90.00;;;;;;5044977;28;20044;-57
2023/07/25 04:37:31;;;;;;;29.92;7.15;;;22.80;89.90;;;;;;5044469;28;20043;-57
2023/07/25 04:39:56;;;;;;;33.78;6.45;;;22.80;89.90;;;;;;5046232;28;20022;-57
2023/07/25 04:42:22;;;;;;;27.70;6.75;;;22.80;90.20;;;;;;5046717;28;20461;-57
2023/07/25 04:44:47;;;;;;;21.20;5.60;;;22.80;89.90;;;;;;5045506;28;20037;-57
2023/07/25 04:47:13;;;;;;;25.60;6.10;;;22.70;90.00;;;;;;5028440;28;20042;-58
2023/07/25 04:49:38;;;;;;;13.77;5.55;;;22.80;90.00;;;;;;5028619;28;20028;-57
2023/07/25 04:52:04;;;;;;;34.10;5.50;;;22.70;89.80;;;;;;5046240;28;20410;-58
2023/07/25 04:54:30;;;;;;;16.08;4.97;;;22.80;89.80;;;;;;5044849;28;20047;-57
2023/07/25 04:56:55;;;;;;;33.15;5.78;;;22.70;89.70;;;;;;5044735;28;20038;-57
2023/07/25 04:59:21;;;;;;;25.42;5.80;;;22.70;89.70;;;;;;5044805;28;20049;-57
2023/07/25 05:01:46;;;;;;;22.10;5.40;;;22.70;89.90;;;;;;5043871;28;20029;-57
2023/07/25 05:04:12;;;;;;;18.95;5.60;;;22.70;89.70;;;;;;5044739;28;20030;-57
2023/07/25 05:06:37;;;;;;;17.00;4.78;;;22.70;89.50;;;;;;5027582;28;20062;-57
2023/07/25 05:09:03;;;;;;;16.65;5.00;;;22.70;89.50;;;;;;5045563;28;20048;-57
2023/07/25 05:11:28;;;;;;;14.85;4.85;;;22.70;89.40;;;;;;5046319;28;20139;-57
2023/07/25 05:13:54;;;;;;;16.73;4.80;;;22.70;89.90;;;;;;5045280;28;20104;-57
2023/07/25 05:16:20;;;;;;;14.35;4.75;;;22.70;89.20;;;;;;5046849;28;20064;-57
2023/07/25 05:18:45;;;;;;;17.20;4.65;;;22.70;89.00;;;;;;5046827;28;20531;-57
2023/07/25 05:21:11;;;;;;;21.77;5.65;;;22.70;88.90;;;;;;5046008;28;20045;-57
2023/07/25 05:23:36;;;;;;;12.43;4.80;;;22.70;88.70;;;;;;5047086;28;20480;-57
2023/07/25 05:26:02;;;;;;;21.92;5.15;;;22.70;88.60;;;;;;5029881;28;20104;-57
2023/07/25 05:28:27;;;;;;;19.02;5.05;;;22.70;88.60;;;;;;5047461;28;20029;-57
2023/07/25 05:30:53;;;;;;;24.35;5.45;;;22.70;88.50;;;;;;5045413;28;20082;-57
2023/07/25 05:33:18;;;;;;;16.65;6.13;;;22.70;88.40;;;;;;5046627;28;20056;-57
2023/07/25 05:35:44;;;;;;;17.25;6.30;;;22.70;88.40;;;;;;5046356;28;20033;-57
2023/07/25 05:38:09;;;;;;;19.15;6.20;;;22.70;88.30;;;;;;5044379;28;20029;-57
2023/07/25 05:40:35;;;;;;;19.92;6.20;;;22.70;88.20;;;;;;5044755;28;20026;-57
2023/07/25 05:43:02;;;;;;;15.10;5.85;;;22.80;88.80;;;;;;5046231;28;20048;-57
2023/07/25 05:45:28;;;;;;;18.88;5.70;;;22.70;88.00;;;;;;5044685;28;20247;-56
2023/07/25 05:47:53;;;;;;;19.38;5.40;;;22.80;88.10;;;;;;5037960;28;20083;-57
2023/07/25 05:50:19;;;;;;;19.50;5.72;;;22.70;87.90;;;;;;5057631;28;20032;-57
2023/07/25 05:52:44;;;;;;;19.42;6.18;;;22.70;87.80;;;;;;5078580;28;20040;-56
2023/07/25 05:55:10;;;;;;;14.55;5.15;;;22.70;87.70;;;;;;5028650;28;20029;-57
2023/07/25 05:57:35;;;;;;;17.05;5.20;;;22.70;88.40;;;;;;5041419;28;20022;-57
2023/07/25 06:00:01;;;;;;;8.50;4.93;;;22.70;87.60;;;;;;5045246;28;20024;-57
2023/07/25 06:02:27;;;;;;;9.00;4.43;;;22.70;87.60;;;;;;5047134;28;20036;-57
2023/07/25 06:04:52;;;;;;;19.85;4.15;;;22.80;87.60;;;;;;5037865;28;20030;-56
2023/07/25 06:07:18;;;;;;;6.97;3.83;;;22.70;87.60;;;;;;5047578;28;20049;-57
2023/07/25 06:09:43;;;;;;;9.80;4.03;;;22.70;87.50;;;;;;5040643;28;20033;-57
2023/07/25 06:12:09;;;;;;;8.30;3.53;;;22.70;87.50;;;;;;5029867;28;20159;-57
2023/07/25 06:14:35;;;;;;;12.80;3.92;;;22.70;87.40;;;;;;5029235;28;20738;-57
2023/07/25 06:17:00;;;;;;;7.95;3.45;;;22.70;87.30;;;;;;5031892;28;20053;-57
2023/07/25 06:19:26;;;;;;;7.18;3.78;;;22.70;87.20;;;;;;5033245;28;20021;-57
2023/07/25 06:21:51;;;;;;;10.75;3.30;;;22.70;87.10;;;;;;5032475;28;20041;-57
2023/07/25 06:24:17;;;;;;;7.38;3.15;;;22.70;87.00;;;;;;5033132;28;20477;-57
2023/07/25 06:26:42;;;;;;;4.68;2.97;;;22.70;86.90;;;;;;5033321;28;20147;-58
2023/07/25 06:29:08;;;;;;;7.72;2.95;;;22.70;86.80;;;;;;5040287;28;20056;-57
2023/07/25 06:31:34;;;;;;;4.80;2.47;;;22.60;86.60;;;;;;5049200;28;20040;-57
2023/07/25 06:34:00;;;;;;;8.63;2.97;;;22.70;86.60;;;;;;5040033;28;20033;-57
2023/07/25 06:36:25;;;;;;;7.15;2.95;;;22.60;86.40;;;;;;5031644;28;20469;-57
2023/07/25 06:38:51;;;;;;;5.85;2.92;;;22.60;86.40;;;;;;5033263;28;20044;-57
2023/07/25 06:41:16;;;;;;;3.15;2.10;;;22.60;86.30;;;;;;5034370;28;20139;-57
2023/07/25 06:43:42;;;;;;;5.60;2.50;;;22.60;86.00;;;;;;5029876;28;20037;-57
2023/07/25 06:46:07;;;;;;;4.80;2.30;;;22.60;85.90;;;;;;5051899;28;20082;-57
2023/07/25 06:48:33;;;;;;;7.47;2.53;;;22.60;85.70;;;;;;5078251;28;20249;-57
2023/07/25 06:50:58;;;;;;;7.28;2.80;;;22.60;85.60;;;;;;5042846;28;20044;-57
2023/07/25 06:53:24;;;;;;;6.22;2.20;;;22.50;85.50;;;;;;5044186;28;20033;-57
2023/07/25 06:55:49;;;;;;;4.43;2.42;;;22.60;85.60;;;;;;5047707;28;20033;-57
2023/07/25 06:58:15;;;;;;;4.25;2.35;;;22.50;85.30;;;;;;5047297;28;20492;-56
2023/07/25 07:00:40;;;;;;;10.35;2.80;;;22.50;85.20;;;;;;5042071;28;20026;-57
2023/07/25 07:03:07;;;;;;;5.93;2.20;;;22.50;85.20;;;;;;5046868;28;20040;-55
2023/07/25 07:05:32;;;;;;;5.10;2.63;;;22.50;85.10;;;;;;5041068;28;20034;-57
2023/07/25 07:07:59;;;;;;;7.05;2.40;;;22.50;85.00;;;;;;5028401;28;20048;-57
2023/07/25 07:10:24;;;;;;;8.18;2.28;;;22.50;84.90;;;;;;5026740;28;20030;-57
2023/07/25 07:12:52;;;;;;;7.82;2.00;;;22.50;84.70;;;;;;5046012;28;20038;-57
2023/07/25 07:15:18;;;;;;;9.23;2.10;;;22.50;84.50;;;;;;5048122;28;20492;-57
2023/07/25 07:17:43;;;;;;;4.95;2.20;;;22.60;84.40;;;;;;5047587;28;20029;-56
2023/07/25 07:20:09;;;;;;;8.07;2.47;;;22.50;84.30;;;;;;5045359;28;20044;-57
2023/07/25 07:22:34;;;;;;;5.40;2.05;;;22.50;84.10;;;;;;5035901;28;20030;-57
2023/07/25 07:25:00;;;;;;;7.03;2.20;;;22.50;84.20;;;;;;5047354;28;20028;-57
2023/07/25 07:27:26;;;;;;;10.15;2.70;;;22.50;84.00;;;;;;5029667;28;20045;-57
2023/07/25 07:29:52;;;;;;;10.98;3.17;;;22.50;84.10;;;;;;5044768;28;20045;-56
2023/07/25 07:32:17;;;;;;;6.10;2.30;;;22.50;84.00;;;;;;5026312;28;20033;-57
2023/07/25 07:34:43;;;;;;;9.30;2.40;;;22.50;84.00;;;;;;5025859;28;20033;-57
2023/07/25 07:37:09;;;;;;;12.15;2.40;;;22.50;84.00;;;;;;5033317;28;20034;-57
2023/07/25 07:39:35;;;;;;;8.38;2.15;;;22.50;83.90;;;;;;5045726;28;20037;-57
2023/07/25 07:42:01;;;;;;;11.52;2.67;;;22.50;83.80;;;;;;5046201;28;20032;-57
2023/07/25 07:44:26;;;;;;;11.77;2.42;;;22.50;83.70;;;;;;5027413;28;20072;-57
2023/07/25 07:46:52;;;;;;;13.00;2.58;;;22.50;83.50;;;;;;5046519;28;20025;-57
2023/07/25 07:49:17;;;;;;;8.15;2.30;;;22.50;83.60;;;;;;5040094;28;20026;-57
2023/07/25 07:51:43;;;;;;;15.20;2.05;;;22.50;83.60;;;;;;5046735;28;20052;-57
2023/07/25 07:54:08;;;;;;;6.70;2.67;;;22.40;83.50;;;;;;5046931;28;20038;-57
2023/07/25 07:56:34;;;;;;;11.45;2.20;;;22.40;83.40;;;;;;5028263;28;20029;-56
2023/07/25 07:58:59;;;;;;;11.98;2.63;;;22.40;83.40;;;;;;5045518;28;20444;-57
2023/07/25 08:01:25;;;;;;;9.13;2.05;;;22.40;83.40;;;;;;5045199;28;20033;-56
2023/07/25 08:03:50;;;;;;;14.30;2.42;;;22.40;83.40;;;;;;5044555;28;20052;-57
2023/07/25 08:06:16;;;;;;;7.38;1.95;;;22.40;83.40;;;;;;5046839;28;20052;-55
2023/07/25 08:08:42;;;;;;;5.00;2.13;;;22.40;83.20;;;;;;5027872;28;20036;-55
2023/07/25 08:11:07;;;;;;;5.68;2.00;;;22.40;83.10;;;;;;5038815;28;20025;-55
2023/07/25 08:13:33;;;;;;;5.68;1.88;;;22.40;83.10;;;;;;5027704;28;20031;-56
2023/07/25 08:15:58;;;;;;;10.50;1.83;;;22.40;82.90;;;;;;5040925;28;20096;-55
2023/07/25 08:18:24;;;;;;;10.48;2.35;;;22.40;82.90;;;;;;5040809;28;20029;-55
2023/07/25 08:20:56;;;;;;;8.50;2.40;;;22.40;82.80;;;;;;5043899;28;20080;-55
2023/07/25 08:23:22;;;;;;;13.00;2.40;;;22.40;82.60;;;;;;5024580;28;20025;-55
2023/07/25 08:25:48;;;;;;;7.47;2.20;;;22.50;82.60;;;;;;5040445;28;20030;-55
2023/07/25 08:28:14;;;;;;;8.35;2.33;;;22.50;82.50;;;;;;5042918;28;22044;-55
2023/07/25 08:30:39;;;;;;;11.27;2.45;;;22.50;82.30;;;;;;5042681;28;20176;-55
2023/07/25 08:33:05;;;;;;;10.23;2.47;;;22.50;82.20;;;;;;5044682;28;20030;-55
2023/07/25 08:35:30;;;;;;;7.38;2.05;;;22.50;82.00;;;;;;5046607;28;20033;-55
2023/07/25 08:37:56;;;;;;;7.90;2.92;;;22.50;81.90;;;;;;5043911;28;20081;-55
2023/07/25 08:40:21;;;;;;;15.85;2.83;;;22.50;81.80;;;;;;5041657;28;20031;-55
2023/07/25 08:42:47;;;;;;;9.85;2.35;;;22.50;81.80;;;;;;5048524;28;20406;-55
2023/07/25 08:45:12;;;;;;;10.32;2.30;;;22.60;81.70;;;;;;5056503;28;20061;-60
2023/07/25 08:47:40;;;;;;;8.27;2.67;;;22.60;81.40;;;;;;5042396;28;20033;-55
2023/07/25 08:50:11;;;;;;;13.00;2.95;;;22.60;81.00;;;;;;5044856;28;20037;-56
2023/07/25 08:52:36;;;;;;;8.45;2.38;;;22.60;80.90;;;;;;5047851;28;20037;-55
2023/07/25 08:55:02;;;;;;;17.17;2.75;;;22.70;80.50;;;;;;5021488;28;20421;-55
2023/07/25 08:57:27;;;;;;;11.90;2.58;;;22.70;79.90;;;;;;5038743;28;20927;-57
2023/07/25 08:59:53;;;;;;;16.10;3.42;;;22.60;79.70;;;;;;5041517;28;20034;-56
2023/07/25 09:02:19;;;;;;;10.90;3.05;;;22.70;79.30;;;;;;5042022;28;20041;-56
2023/07/25 09:04:47;;;;;;;12.25;3.42;;;22.70;79.20;;;;;;5046313;28;20022;-55
2023/07/25 09:07:13;;;;;;;16.30;3.15;;;22.70;79.00;;;;;;5039834;28;20038;-55
2023/07/25 09:09:38;;;;;;;25.98;3.70;;;22.70;78.70;;;;;;5041434;28;20053;-60
2023/07/25 09:12:04;;;;;;;22.80;3.55;;;22.80;78.80;;;;;;5041602;28;20047;-56
2023/07/25 09:14:30;;;;;;;18.00;3.80;;;22.80;78.50;;;;;;5044262;28;20025;-56
2023/07/25 09:16:55;;;;;;;27.55;3.65;;;22.80;78.40;;;;;;5038077;28;20038;-56
2023/07/25 09:19:21;;;;;;;17.08;3.70;;;22.80;78.30;;;;;;5039022;28;20075;-56
2023/07/25 09:21:48;;;;;;;31.85;4.53;;;22.80;78.20;;;;;;5042456;28;20071;-57
2023/07/25 09:24:14;;;;;;;24.85;4.40;;;22.80;78.10;;;;;;5045547;28;20428;-55
2023/07/25 09:26:41;;;;;;;36.05;4.75;;;22.80;78.10;;;;;;5037103;28;20029;-56
2023/07/25 09:29:07;;;;;;;24.98;4.13;;;22.90;78.10;;;;;;5034208;28;20107;-55
2023/07/25 09:31:41;;;;;;;33.10;4.65;;;22.90;77.90;;;;;;5043674;28;20029;-56
2023/07/25 09:34:07;;;;;;;41.78;5.13;;;22.90;77.60;;;;;;5039979;28;20025;-56
2023/07/25 09:36:32;;;;;;;22.33;4.55;;;22.90;77.40;;;;;;5025107;28;20097;-55
2023/07/25 09:38:58;;;;;;;25.83;4.95;;;22.90;77.40;;;;;;5039610;28;20029;-56
2023/07/25 09:41:24;;;;;;;21.00;3.67;;;22.90;77.10;;;;;;5043826;28;20108;-55
2023/07/25 09:43:50;;;;;;;31.90;5.15;;;22.90;76.90;;;;;;5028568;28;20444;-55
2023/07/25 09:46:16;;;;;;;25.77;4.25;;;23.00;77.40;;;;;;5041594;28;20687;-55
2023/07/25 09:48:43;;;;;;;21.00;3.45;;;22.90;76.50;;;;;;5038476;28;20128;-55
2023/07/25 09:51:09;;;;;;;21.95;4.05;;;22.90;76.10;;;;;;5045399;28;20072;-55
2023/07/25 09:53:35;;;;;;;17.55;3.90;;;22.90;75.90;;;;;;5038573;28;20037;-56
2023/07/25 09:56:00;;;;;;;27.35;3.63;;;22.90;75.50;;;;;;5031267;28;20026;-56
2023/07/25 09:58:26;;;;;;;23.92;4.38;;;23.00;75.60;;;;;;5057067;28;20084;-58
2023/07/25 10:00:51;;;;;;;32.80;5.82;;;23.00;75.30;;;;;;5039409;28;20109;-57
2023/07/25 10:03:17;;;;;;;34.50;5.15;;;23.00;75.50;;;;;;5043979;28;20068;-58
2023/07/25 10:05:44;;;;;;;44.60;5.57;;;23.00;74.90;;;;;;5068530;28;20036;-57
2023/07/25 10:08:11;;;;;;;31.65;4.78;;;23.00;73.90;;;;;;5026215;28;20037;-55
2023/07/25 10:10:36;;;;;;;42.80;5.57;;;23.10;74.20;;;;;;5026133;28;20102;-55
2023/07/25 10:13:02;;;;;;;45.08;5.80;;;23.10;73.30;;;;;;5042305;28;20079;-55
2023/07/25 10:15:28;;;;;;;29.67;4.47;;;23.10;73.40;;;;;;5041711;28;20026;-55
2023/07/25 10:18:03;;;;;;;34.28;4.68;;;23.10;73.30;;;;;;5036766;28;20052;-56
2023/07/25 10:20:29;;;;;;;38.17;5.00;;;23.10;73.10;;;;;;5027910;28;20129;-55
2023/07/25 10:23:04;;;;;;;42.15;4.80;;;23.10;72.60;;;;;;5038906;28;20034;-55
2023/07/25 10:25:30;;;;;;;23.35;4.78;;;23.10;72.30;;;;;;5032883;28;20218;-55
2023/07/25 10:27:58;;;;;;;18.00;4.15;;;23.20;72.40;;;;;;5036507;28;20056;-56
2023/07/25 10:30:25;;;;;;;20.65;3.85;;;23.20;72.70;;;;;;5036440;28;20089;-56
2023/07/25 10:32:52;;;;;;;27.05;4.07;;;23.20;73.30;;;;;;5037087;28;20042;-56
2023/07/25 10:35:41;;;;;;;24.55;4.38;;;23.20;73.80;;;;;;5044372;28;20026;-56
2023/07/25 10:38:08;;;;;;;55.25;6.95;;;23.20;74.00;;;;;;5037554;28;20031;-55
2023/07/25 10:40:52;;;;;;;34.25;5.88;;;23.20;74.50;;;;;;5040064;28;20124;-55
2023/07/25 10:43:19;;;;;;;39.30;4.80;;;23.20;75.00;;;;;;5048486;28;20030;-54
2023/07/25 10:45:45;;;;;;;47.03;5.00;;;23.20;75.20;;;;;;5030385;28;20017;-55
2023/07/25 10:48:33;;;;;;;15.93;3.72;;;23.10;75.50;;;;;;5048090;28;20048;-55
2023/07/25 10:51:00;;;;;;;50.97;5.07;;;23.10;75.70;;;;;;5046018;28;20026;-55
2023/07/25 10:53:26;;;;;;;27.60;3.85;;;23.10;75.90;;;;;;5051195;28;20032;-54
2023/07/25 10:56:03;;;;;;;20.98;4.10;;;23.10;76.30;;;;;;5039756;28;20029;-55
2023/07/25 10:58:54;;;;;;;37.65;5.95;;;23.10;76.50;;;;;;5048118;28;20029;-58
2023/07/25 11:01:47;;;;;;;31.20;3.50;;;23.10;76.70;;;;;;5044496;28;20026;-56
2023/07/25 11:04:29;;;;;;;12.32;3.22;;;23.10;77.10;;;;;;5032314;28;20068;-56
2023/07/25 11:06:56;;;;;;;21.42;4.07;;;23.10;77.60;;;;;;5026925;28;20021;-55
2023/07/25 11:09:22;;;;;;;19.02;3.78;;;23.00;77.80;;;;;;5043550;28;20056;-55
2023/07/25 11:11:52;;;;;;;24.48;4.40;;;23.10;77.80;;;;;;5028784;28;20038;-56
2023/07/25 11:14:18;;;;;;;20.52;4.30;;;23.10;77.90;;;;;;5033051;28;20030;-55
2023/07/25 11:16:45;;;;;;;17.25;4.32;;;23.10;77.80;;;;;;5039080;28;20064;-56
2023/07/25 11:19:11;;;;;;;12.60;3.70;;;23.20;77.80;;;;;;5037135;28;20021;-56
2023/07/25 11:21:40;;;;;;;17.50;3.65;;;23.20;77.80;;;;;;5043496;28;20036;-56
2023/07/25 11:24:07;;;;;;;28.95;4.18;;;23.30;77.70;;;;;;5058409;28;20017;-57
2023/07/25 11:26:32;;;;;;;17.25;4.10;;;23.30;77.50;;;;;;5041880;28;20036;-55
2023/07/25 11:29:04;;;;;;;21.42;4.40;;;23.40;77.60;;;;;;5026212;28;20033;-56
2023/07/25 11:31:30;;;;;;;25.98;4.28;;;23.40;77.50;;;;;;5041745;28;20369;-55
2023/07/25 11:33:56;;;;;;;29.48;5.05;;;23.50;77.40;;;;;;5040815;28;20026;-55
2023/07/25 11:36:21;;;;;;;28.77;5.15;;;23.50;77.50;;;;;;5041813;28;20052;-56
2023/07/25 11:38:47;;;;;;;25.58;4.40;;;23.50;77.30;;;;;;5043999;28;20092;-56
2023/07/25 11:41:12;;;;;;;23.70;4.40;;;23.50;77.40;;;;;;5035430;28;20034;-55
2023/07/25 11:43:38;;;;;;;27.92;5.07;;;23.50;77.50;;;;;;5041916;28;20091;-51
2023/07/25 11:46:03;;;;;;;32.55;4.75;;;23.50;77.40;;;;;;5040690;28;20128;-50
2023/07/25 11:48:29;;;;;;;24.73;4.20;;;23.60;77.40;;;;;;5030938;28;20036;-51
2023/07/25 11:50:55;;;;;;;26.80;4.53;;;23.60;77.20;;;;;;5038375;28;20269;-50
2023/07/25 11:53:21;;;;;;;23.80;4.60;;;23.70;76.90;;;;;;5040953;28;20022;-51
2023/07/25 11:55:47;;;;;;;19.10;4.28;;;23.80;76.50;;;;;;5037834;28;20033;-50
2023/07/25 11:58:19;;;;;;;20.80;4.90;;;23.90;76.30;;;;;;5040011;28;20057;-51
2023/07/25 12:00:51;;;;;;;27.58;4.60;;;24.00;75.90;;;;;;5044236;28;20104;-51
2023/07/25 12:03:17;;;;;;;52.90;6.07;;;24.00;75.40;;;;;;5038487;28;20125;-51
2023/07/25 12:05:44;;;;;;;30.92;5.28;;;24.00;75.10;;;;;;5037924;28;20039;-51
2023/07/25 12:08:10;;;;;;;27.08;5.03;;;24.00;75.30;;;;;;5041546;28;20041;-55
2023/07/25 12:10:36;;;;;;;30.40;4.28;;;24.00;75.30;;;;;;5041872;28;20478;-55
2023/07/25 12:13:08;;;;;;;26.17;4.28;;;24.10;75.00;;;;;;5042896;28;20037;-55
2023/07/25 12:15:49;;;;;;;19.92;3.75;;;24.10;75.10;;;;;;5043861;28;20037;-56
2023/07/25 12:18:27;;;;;;;19.80;3.67;;;24.10;75.20;;;;;;5039738;28;20057;-56
2023/07/25 12:20:54;;;;;;;22.77;3.47;;;24.10;75.00;;;;;;5032911;28;20037;-56
2023/07/25 12:23:38;;;;;;;19.23;3.60;;;24.20;74.60;;;;;;5044670;28;20025;-56
2023/07/25 12:26:04;;;;;;;23.48;4.60;;;24.40;74.40;;;;;;5043071;28;20055;-55
2023/07/25 12:28:39;;;;;;;40.50;4.95;;;24.40;74.20;;;;;;5045248;28;20112;-56
2023/07/25 12:31:05;;;;;;;36.88;4.40;;;24.40;73.90;;;;;;5042472;28;20034;-56
2023/07/25 12:33:30;;;;;;;39.22;5.28;;;24.40;73.90;;;;;;5027180;28;20036;-56
2023/07/25 12:35:57;;;;;;;39.92;5.45;;;24.50;73.80;;;;;;5041789;28;20083;-56